sensor_id;sensor_type;location;lat;lon;timestamp;pressure;altitude;pressure_sealevel;temperature;humidity
8575;BME280;4325;42.520;27.448;2023-02-28T00:00:51;102002.97;;;9.47;100.00
8575;BME280;4325;42.520;27.448;2023-02-28T00:03:18;101980.19;;;9.53;100.00
8575;BME280;4325;42.520;27.448;2023-02-28T00:05:44;101979.28;;;9.59;100.00
8575;BME280;4325;42.520;27.448;2023-02-28T00:08:11;101975.91;;;9.57;100.00
8575;BME280;4325;42.520;27.448;2023-02-28T00:10:40;101987.81;;;9.51;100.00
8575;BME280;4325;42.520;27.448;2023-02-28T00:13:07;102001.44;;;9.39;100.00
8575;BME280;4325;42.520;27.448;2023-02-28T00:15:34;102000.22;;;9.35;100.00
8575;BME280;4325;42.520;27.448;2023-02-28T00:18:01;102015.13;;;9.39;100.00
8575;BME280;4325;42.520;27.448;2023-02-28T00:20:28;102014.31;;;9.50;100.00
8575;BME280;4325;42.520;27.448;2023-02-28T00:22:55;102023.22;;;9.57;100.00
8575;BME280;4325;42.520;27.448;2023-02-28T00:25:24;102025.75;;;9.59;100.00
8575;BME280;4325;42.520;27.448;2023-02-28T00:27:52;102022.19;;;9.58;100.00
8575;BME280;4325;42.520;27.448;2023-02-28T00:30:20;102034.97;;;9.46;100.00
8575;BME280;4325;42.520;27.448;2023-02-28T00:32:48;102033.88;;;9.36;100.00
8575;BME280;4325;42.520;27.448;2023-02-28T00:35:15;102043.59;;;9.32;100.00
8575;BME280;4325;42.520;27.448;2023-02-28T00:37:42;102043.13;;;9.35;100.00
8575;BME280;4325;42.520;27.448;2023-02-28T00:40:10;102027.56;;;9.35;100.00
8575;BME280;4325;42.520;27.448;2023-02-28T00:42:38;102021.25;;;9.35;100.00
8575;BME280;4325;42.520;27.448;2023-02-28T00:45:07;102046.63;;;9.42;100.00
8575;BME280;4325;42.520;27.448;2023-02-28T00:47:34;102045.53;;;9.43;100.00
8575;BME280;4325;42.520;27.448;2023-02-28T00:50:02;102034.47;;;9.38;100.00
8575;BME280;4325;42.520;27.448;2023-02-28T00:52:29;102038.88;;;9.39;100.00
8575;BME280;4325;42.520;27.448;2023-02-28T00:54:56;102038.59;;;9.28;100.00
8575;BME280;4325;42.520;27.448;2023-02-28T00:57:23;102029.78;;;9.26;100.00
8575;BME280;4325;42.520;27.448;2023-02-28T00:59:50;102028.97;;;9.26;100.00
8575;BME280;4325;42.520;27.448;2023-02-28T01:02:21;102031.84;;;9.31;100.00
8575;BME280;4325;42.520;27.448;2023-02-28T01:04:49;102042.66;;;9.38;100.00
8575;BME280;4325;42.520;27.448;2023-02-28T01:07:15;102020.72;;;9.14;100.00
8575;BME280;4325;42.520;27.448;2023-02-28T01:09:42;102061.59;;;9.21;100.00
8575;BME280;4325;42.520;27.448;2023-02-28T01:12:09;102056.38;;;9.19;100.00
8575;BME280;4325;42.520;27.448;2023-02-28T01:14:36;102054.69;;;9.18;100.00
8575;BME280;4325;42.520;27.448;2023-02-28T01:17:03;102057.69;;;9.17;100.00
8575;BME280;4325;42.520;27.448;2023-02-28T01:19:32;102044.97;;;9.22;100.00
8575;BME280;4325;42.520;27.448;2023-02-28T01:22:01;102037.47;;;9.18;100.00
8575;BME280;4325;42.520;27.448;2023-02-28T01:24:28;102034.53;;;9.19;100.00
8575;BME280;4325;42.520;27.448;2023-02-28T01:26:55;102044.00;;;9.17;100.00
8575;BME280;4325;42.520;27.448;2023-02-28T01:29:22;102058.97;;;9.14;100.00
8575;BME280;4325;42.520;27.448;2023-02-28T01:31:48;102052.75;;;9.07;100.00
8575;BME280;4325;42.520;27.448;2023-02-28T01:34:16;102046.00;;;9.10;100.00
8575;BME280;4325;42.520;27.448;2023-02-28T01:36:45;102058.97;;;9.14;100.00
8575;BME280;4325;42.520;27.448;2023-02-28T01:39:12;102044.72;;;9.12;100.00
8575;BME280;4325;42.520;27.448;2023-02-28T01:41:39;102037.94;;;9.15;100.00
8575;BME280;4325;42.520;27.448;2023-02-28T01:44:53;102041.28;;;9.17;100.00
8575;BME280;4325;42.520;27.448;2023-02-28T01:46:54;102061.22;;;9.17;100.00
8575;BME280;4325;42.520;27.448;2023-02-28T01:49:21;102079.16;;;9.13;100.00
8575;BME280;4325;42.520;27.448;2023-02-28T01:51:50;102082.34;;;9.10;100.00
8575;BME280;4325;42.520;27.448;2023-02-28T01:54:22;102080.69;;;9.09;100.00
8575;BME280;4325;42.520;27.448;2023-02-28T01:56:54;102070.34;;;9.11;100.00
8575;BME280;4325;42.520;27.448;2023-02-28T01:59:27;102068.66;;;9.10;100.00
8575;BME280;4325;42.520;27.448;2023-02-28T02:01:56;102068.22;;;9.13;100.00
8575;BME280;4325;42.520;27.448;2023-02-28T02:04:23;102061.91;;;9.13;100.00
8575;BME280;4325;42.520;27.448;2023-02-28T02:06:54;102077.00;;;9.15;100.00
8575;BME280;4325;42.520;27.448;2023-02-28T02:09:21;102083.91;;;9.18;100.00
8575;BME280;4325;42.520;27.448;2023-02-28T02:11:48;102079.75;;;9.15;100.00
8575;BME280;4325;42.520;27.448;2023-02-28T02:14:37;102071.03;;;9.07;100.00
8575;BME280;4325;42.520;27.448;2023-02-28T02:17:19;102059.03;;;9.08;100.00
8575;BME280;4325;42.520;27.448;2023-02-28T02:23:11;102062.31;;;9.16;100.00
8575;BME280;4325;42.520;27.448;2023-02-28T02:25:50;102063.50;;;9.20;100.00
8575;BME280;4325;42.520;27.448;2023-02-28T02:28:39;102077.63;;;9.17;100.00
8575;BME280;4325;42.520;27.448;2023-02-28T02:31:36;102068.22;;;9.13;100.00
8575;BME280;4325;42.520;27.448;2023-02-28T02:34:28;102068.31;;;9.07;100.00
8575;BME280;4325;42.520;27.448;2023-02-28T02:37:03;102086.00;;;9.04;100.00
8575;BME280;4325;42.520;27.448;2023-02-28T02:39:39;102074.31;;;8.97;100.00
8575;BME280;4325;42.520;27.448;2023-02-28T02:42:13;102071.78;;;8.96;100.00
8575;BME280;4325;42.520;27.448;2023-02-28T02:44:44;102078.53;;;8.93;100.00
8575;BME280;4325;42.520;27.448;2023-02-28T02:47:16;102085.59;;;9.01;100.00
8575;BME280;4325;42.520;27.448;2023-02-28T02:49:49;102071.75;;;9.02;100.00
8575;BME280;4325;42.520;27.448;2023-02-28T02:52:20;102077.66;;;8.99;100.00
8575;BME280;4325;42.520;27.448;2023-02-28T02:54:50;102078.94;;;8.97;100.00
8575;BME280;4325;42.520;27.448;2023-02-28T02:57:31;102077.72;;;8.93;100.00
8575;BME280;4325;42.520;27.448;2023-02-28T03:00:02;102068.69;;;8.92;100.00
8575;BME280;4325;42.520;27.448;2023-02-28T03:02:32;102060.97;;;8.89;100.00
8575;BME280;4325;42.520;27.448;2023-02-28T03:05:03;102074.00;;;8.87;100.00
8575;BME280;4325;42.520;27.448;2023-02-28T03:07:31;102066.06;;;8.86;100.00
8575;BME280;4325;42.520;27.448;2023-02-28T03:09:58;102083.25;;;8.86;100.00
8575;BME280;4325;42.520;27.448;2023-02-28T03:12:33;102104.22;;;8.92;100.00
8575;BME280;4325;42.520;27.448;2023-02-28T03:15:08;102096.63;;;8.94;100.00
8575;BME280;4325;42.520;27.448;2023-02-28T03:17:50;102094.50;;;8.96;100.00
8575;BME280;4325;42.520;27.448;2023-02-28T03:20:32;102090.72;;;8.97;100.00
8575;BME280;4325;42.520;27.448;2023-02-28T03:23:10;102109.13;;;9.02;100.00
8575;BME280;4325;42.520;27.448;2023-02-28T03:25:48;102127.56;;;9.06;100.00
8575;BME280;4325;42.520;27.448;2023-02-28T03:28:24;102117.03;;;9.10;100.00
8575;BME280;4325;42.520;27.448;2023-02-28T03:30:58;102099.22;;;9.07;100.00
8575;BME280;4325;42.520;27.448;2023-02-28T03:33:29;102097.06;;;9.09;100.00
8575;BME280;4325;42.520;27.448;2023-02-28T03:36:01;102091.81;;;9.08;100.00
8575;BME280;4325;42.520;27.448;2023-02-28T03:38:33;102085.53;;;9.07;100.00
8575;BME280;4325;42.520;27.448;2023-02-28T03:41:06;102092.31;;;9.05;100.00
8575;BME280;4325;42.520;27.448;2023-02-28T03:43:39;102099.09;;;8.96;100.00
8575;BME280;4325;42.520;27.448;2023-02-28T03:46:10;102103.28;;;8.98;100.00
8575;BME280;4325;42.520;27.448;2023-02-28T03:48:43;102105.34;;;9.03;100.00
8575;BME280;4325;42.520;27.448;2023-02-28T03:51:15;102101.53;;;9.04;100.00
8575;BME280;4325;42.520;27.448;2023-02-28T03:53:46;102097.38;;;9.01;100.00
8575;BME280;4325;42.520;27.448;2023-02-28T03:56:18;102093.34;;;9.04;100.00
8575;BME280;4325;42.520;27.448;2023-02-28T03:58:49;102088.88;;;8.91;100.00
8575;BME280;4325;42.520;27.448;2023-02-28T04:01:20;102103.91;;;8.82;100.00
8575;BME280;4325;42.520;27.448;2023-02-28T04:03:49;102108.16;;;8.78;100.00
8575;BME280;4325;42.520;27.448;2023-02-28T04:06:19;102111.69;;;8.79;100.00
8575;BME280;4325;42.520;27.448;2023-02-28T04:08:48;102109.44;;;8.76;100.00
8575;BME280;4325;42.520;27.448;2023-02-28T04:11:22;102107.06;;;8.79;100.00
8575;BME280;4325;42.520;27.448;2023-02-28T04:13:50;102126.03;;;8.74;100.00
8575;BME280;4325;42.520;27.448;2023-02-28T04:16:17;102121.66;;;8.73;100.00
8575;BME280;4325;42.520;27.448;2023-02-28T04:18:44;102114.59;;;8.66;100.00
8575;BME280;4325;42.520;27.448;2023-02-28T04:21:11;102118.97;;;8.67;100.00
8575;BME280;4325;42.520;27.448;2023-02-28T04:23:39;102135.16;;;8.68;100.00
8575;BME280;4325;42.520;27.448;2023-02-28T04:26:06;102126.94;;;8.68;100.00
8575;BME280;4325;42.520;27.448;2023-02-28T04:28:33;102122.69;;;8.72;100.00
8575;BME280;4325;42.520;27.448;2023-02-28T04:31:03;102114.94;;;8.69;100.00
8575;BME280;4325;42.520;27.448;2023-02-28T04:33:32;102119.53;;;8.75;100.00
8575;BME280;4325;42.520;27.448;2023-02-28T04:36:00;102112.53;;;8.79;100.00
8575;BME280;4325;42.520;27.448;2023-02-28T04:38:28;102107.31;;;8.78;100.00
8575;BME280;4325;42.520;27.448;2023-02-28T04:40:58;102104.78;;;8.76;100.00
8575;BME280;4325;42.520;27.448;2023-02-28T04:43:26;102115.34;;;8.73;100.00
8575;BME280;4325;42.520;27.448;2023-02-28T04:45:53;102105.25;;;8.73;100.00
8575;BME280;4325;42.520;27.448;2023-02-28T04:48:22;102116.47;;;8.65;100.00
8575;BME280;4325;42.520;27.448;2023-02-28T04:50:50;102112.00;;;8.71;100.00
8575;BME280;4325;42.520;27.448;2023-02-28T04:53:17;102116.63;;;8.70;100.00
8575;BME280;4325;42.520;27.448;2023-02-28T04:55:44;102115.59;;;8.71;100.00
8575;BME280;4325;42.520;27.448;2023-02-28T04:58:12;102119.13;;;8.72;100.00
8575;BME280;4325;42.520;27.448;2023-02-28T05:00:39;102133.63;;;8.72;100.00
8575;BME280;4325;42.520;27.448;2023-02-28T05:03:06;102128.41;;;8.71;100.00
8575;BME280;4325;42.520;27.448;2023-02-28T05:05:33;102119.38;;;8.70;100.00
8575;BME280;4325;42.520;27.448;2023-02-28T05:08:00;102114.50;;;8.72;100.00
8575;BME280;4325;42.520;27.448;2023-02-28T05:10:26;102122.69;;;8.72;100.00
8575;BME280;4325;42.520;27.448;2023-02-28T05:12:53;102131.34;;;8.69;100.00
8575;BME280;4325;42.520;27.448;2023-02-28T05:15:22;102136.78;;;8.69;100.00
8575;BME280;4325;42.520;27.448;2023-02-28T05:17:48;102149.41;;;8.70;100.00
8575;BME280;4325;42.520;27.448;2023-02-28T05:20:15;102144.38;;;8.67;100.00
8575;BME280;4325;42.520;27.448;2023-02-28T05:22:43;102152.72;;;8.72;100.00
8575;BME280;4325;42.520;27.448;2023-02-28T05:25:12;102169.88;;;8.79;100.00
8575;BME280;4325;42.520;27.448;2023-02-28T05:27:40;102172.78;;;8.84;100.00
8575;BME280;4325;42.520;27.448;2023-02-28T05:30:08;102174.03;;;8.88;100.00
8575;BME280;4325;42.520;27.448;2023-02-28T05:32:38;102176.44;;;8.96;100.00
8575;BME280;4325;42.520;27.448;2023-02-28T05:35:08;102173.25;;;8.99;100.00
8575;BME280;4325;42.520;27.448;2023-02-28T05:37:35;102171.72;;;9.03;100.00
8575;BME280;4325;42.520;27.448;2023-02-28T05:40:03;102178.44;;;9.07;100.00
8575;BME280;4325;42.520;27.448;2023-02-28T05:42:32;102190.13;;;9.14;100.00
8575;BME280;4325;42.520;27.448;2023-02-28T05:44:59;102188.00;;;9.16;100.00
8575;BME280;4325;42.520;27.448;2023-02-28T05:47:26;102194.66;;;9.20;100.00
8575;BME280;4325;42.520;27.448;2023-02-28T05:49:54;102195.44;;;9.27;100.00
8575;BME280;4325;42.520;27.448;2023-02-28T05:52:21;102191.19;;;9.32;100.00
8575;BME280;4325;42.520;27.448;2023-02-28T05:54:48;102194.09;;;9.37;100.00
8575;BME280;4325;42.520;27.448;2023-02-28T05:57:15;102197.41;;;9.39;100.00
8575;BME280;4325;42.520;27.448;2023-02-28T05:59:42;102201.75;;;9.46;100.00
8575;BME280;4325;42.520;27.448;2023-02-28T06:02:11;102202.81;;;9.45;100.00
8575;BME280;4325;42.520;27.448;2023-02-28T06:04:39;102207.56;;;9.50;100.00
8575;BME280;4325;42.520;27.448;2023-02-28T06:07:07;102204.41;;;9.53;100.00
8575;BME280;4325;42.520;27.448;2023-02-28T06:09:34;102202.56;;;9.65;100.00
8575;BME280;4325;42.520;27.448;2023-02-28T06:12:03;102210.66;;;9.71;100.00
8575;BME280;4325;42.520;27.448;2023-02-28T06:14:32;102217.50;;;9.80;100.00
8575;BME280;4325;42.520;27.448;2023-02-28T06:17:00;102198.50;;;9.85;100.00
8575;BME280;4325;42.520;27.448;2023-02-28T06:19:27;102205.63;;;9.86;100.00
8575;BME280;4325;42.520;27.448;2023-02-28T06:21:54;102211.78;;;10.00;100.00
8575;BME280;4325;42.520;27.448;2023-02-28T06:24:24;102213.88;;;10.16;100.00
8575;BME280;4325;42.520;27.448;2023-02-28T06:26:53;102204.53;;;10.35;100.00
8575;BME280;4325;42.520;27.448;2023-02-28T06:29:20;102210.75;;;10.54;100.00
8575;BME280;4325;42.520;27.448;2023-02-28T06:31:47;102213.03;;;10.69;100.00
8575;BME280;4325;42.520;27.448;2023-02-28T06:34:15;102217.25;;;10.83;100.00
8575;BME280;4325;42.520;27.448;2023-02-28T06:36:43;102225.69;;;10.93;100.00
8575;BME280;4325;42.520;27.448;2023-02-28T06:39:09;102229.25;;;11.05;100.00
8575;BME280;4325;42.520;27.448;2023-02-28T06:41:38;102218.41;;;11.10;100.00
8575;BME280;4325;42.520;27.448;2023-02-28T06:44:05;102219.25;;;11.10;100.00
8575;BME280;4325;42.520;27.448;2023-02-28T06:46:38;102225.56;;;11.11;100.00
8575;BME280;4325;42.520;27.448;2023-02-28T06:49:05;102229.88;;;11.07;99.94
8575;BME280;4325;42.520;27.448;2023-02-28T06:51:34;102233.09;;;11.04;99.10
8575;BME280;4325;42.520;27.448;2023-02-28T06:54:02;102223.19;;;10.91;99.32
8575;BME280;4325;42.520;27.448;2023-02-28T06:56:29;102223.06;;;10.86;98.92
8575;BME280;4325;42.520;27.448;2023-02-28T06:58:57;102226.19;;;10.90;98.67
8575;BME280;4325;42.520;27.448;2023-02-28T07:01:24;102225.78;;;10.75;98.76
8575;BME280;4325;42.520;27.448;2023-02-28T07:03:51;102221.75;;;10.66;99.98
8575;BME280;4325;42.520;27.448;2023-02-28T07:06:18;102222.22;;;10.63;100.00
8575;BME280;4325;42.520;27.448;2023-02-28T07:08:45;102206.03;;;10.73;100.00
8575;BME280;4325;42.520;27.448;2023-02-28T07:11:12;102213.88;;;10.69;100.00
8575;BME280;4325;42.520;27.448;2023-02-28T07:13:39;102214.38;;;10.78;100.00
8575;BME280;4325;42.520;27.448;2023-02-28T07:16:09;102220.91;;;10.88;100.00
8575;BME280;4325;42.520;27.448;2023-02-28T07:18:37;102226.28;;;10.95;99.06
8575;BME280;4325;42.520;27.448;2023-02-28T07:21:05;102227.47;;;10.99;99.02
8575;BME280;4325;42.520;27.448;2023-02-28T07:23:32;102224.38;;;11.07;98.45
8575;BME280;4325;42.520;27.448;2023-02-28T07:25:59;102221.97;;;11.22;98.07
8575;BME280;4325;42.520;27.448;2023-02-28T07:28:26;102226.28;;;11.41;96.57
8575;BME280;4325;42.520;27.448;2023-02-28T07:30:53;102223.47;;;11.64;95.97
8575;BME280;4325;42.520;27.448;2023-02-28T07:33:21;102212.97;;;11.61;94.13
8575;BME280;4325;42.520;27.448;2023-02-28T07:35:49;102233.38;;;11.65;94.46
8575;BME280;4325;42.520;27.448;2023-02-28T07:38:16;102222.41;;;11.65;94.47
8575;BME280;4325;42.520;27.448;2023-02-28T07:40:42;102226.44;;;11.74;94.69
8575;BME280;4325;42.520;27.448;2023-02-28T07:43:09;102238.59;;;11.78;93.84
8575;BME280;4325;42.520;27.448;2023-02-28T07:45:36;102240.28;;;11.79;93.35
8575;BME280;4325;42.520;27.448;2023-02-28T07:48:03;102238.59;;;11.78;94.14
8575;BME280;4325;42.520;27.448;2023-02-28T07:50:31;102242.97;;;11.91;93.56
8575;BME280;4325;42.520;27.448;2023-02-28T07:53:00;102249.16;;;11.98;92.84
8575;BME280;4325;42.520;27.448;2023-02-28T07:55:27;102254.31;;;11.95;92.79
8575;BME280;4325;42.520;27.448;2023-02-28T07:57:54;102251.84;;;11.81;92.62
8575;BME280;4325;42.520;27.448;2023-02-28T08:00:21;102256.28;;;11.82;93.16
8575;BME280;4325;42.520;27.448;2023-02-28T08:02:48;102261.66;;;11.77;93.57
8575;BME280;4325;42.520;27.448;2023-02-28T08:05:15;102254.63;;;11.58;93.50
8575;BME280;4325;42.520;27.448;2023-02-28T08:07:44;102263.91;;;11.57;94.12
8575;BME280;4325;42.520;27.448;2023-02-28T08:10:11;102252.72;;;11.47;94.71
8575;BME280;4325;42.520;27.448;2023-02-28T08:12:38;102249.53;;;11.39;95.66
8575;BME280;4325;42.520;27.448;2023-02-28T08:15:05;102243.78;;;11.40;96.02
8575;BME280;4325;42.520;27.448;2023-02-28T08:17:32;102247.97;;;11.31;96.26
8575;BME280;4325;42.520;27.448;2023-02-28T08:19:59;102246.28;;;11.30;97.26
8575;BME280;4325;42.520;27.448;2023-02-28T08:22:26;102249.16;;;11.35;97.29
8575;BME280;4325;42.520;27.448;2023-02-28T08:24:54;102255.47;;;11.36;97.59
8575;BME280;4325;42.520;27.448;2023-02-28T08:27:21;102230.53;;;11.37;97.45
8575;BME280;4325;42.520;27.448;2023-02-28T08:29:48;102248.53;;;11.45;97.70
8575;BME280;4325;42.520;27.448;2023-02-28T08:32:15;102256.75;;;11.56;97.72
8575;BME280;4325;42.520;27.448;2023-02-28T08:34:42;102267.25;;;11.59;96.73
8575;BME280;4325;42.520;27.448;2023-02-28T08:37:08;102260.44;;;11.62;96.45
8575;BME280;4325;42.520;27.448;2023-02-28T08:39:36;102261.66;;;11.54;96.75
8575;BME280;4325;42.520;27.448;2023-02-28T08:42:05;102257.72;;;11.50;96.49
8575;BME280;4325;42.520;27.448;2023-02-28T08:44:32;102253.19;;;11.44;96.76
8575;BME280;4325;42.520;27.448;2023-02-28T08:46:59;102256.38;;;11.64;96.58
8575;BME280;4325;42.520;27.448;2023-02-28T08:49:25;102259.94;;;11.88;95.65
8575;BME280;4325;42.520;27.448;2023-02-28T08:51:52;102256.13;;;12.17;93.55
8575;BME280;4325;42.520;27.448;2023-02-28T08:54:20;102254.25;;;12.34;91.17
8575;BME280;4325;42.520;27.448;2023-02-28T08:56:48;102255.56;;;12.32;90.96
8575;BME280;4325;42.520;27.448;2023-02-28T08:59:16;102259.81;;;12.23;91.59
8575;BME280;4325;42.520;27.448;2023-02-28T09:01:43;102265.19;;;12.18;91.83
8575;BME280;4325;42.520;27.448;2023-02-28T09:04:10;102267.34;;;12.16;91.75
8575;BME280;4325;42.520;27.448;2023-02-28T09:06:37;102246.06;;;12.23;91.90
8575;BME280;4325;42.520;27.448;2023-02-28T09:09:04;102251.22;;;12.19;92.04
8575;BME280;4325;42.520;27.448;2023-02-28T09:11:33;102231.38;;;12.01;92.03
8575;BME280;4325;42.520;27.448;2023-02-28T09:14:01;102259.50;;;12.08;92.66
8575;BME280;4325;42.520;27.448;2023-02-28T09:16:31;102257.59;;;12.08;92.91
8575;BME280;4325;42.520;27.448;2023-02-28T09:18:58;102259.50;;;12.08;92.71
8575;BME280;4325;42.520;27.448;2023-02-28T09:21:25;102261.59;;;12.17;93.31
8575;BME280;4325;42.520;27.448;2023-02-28T09:23:52;102260.28;;;12.20;92.65
8575;BME280;4325;42.520;27.448;2023-02-28T09:26:21;102251.66;;;12.28;92.41
8575;BME280;4325;42.520;27.448;2023-02-28T09:28:48;102251.47;;;12.46;91.68
8575;BME280;4325;42.520;27.448;2023-02-28T09:31:17;102253.03;;;12.58;91.18
8575;BME280;4325;42.520;27.448;2023-02-28T09:33:49;102242.13;;;12.47;91.07
8575;BME280;4325;42.520;27.448;2023-02-28T09:36:17;102248.06;;;12.55;91.46
8575;BME280;4325;42.520;27.448;2023-02-28T09:38:44;102249.22;;;12.43;90.88
8575;BME280;4325;42.520;27.448;2023-02-28T09:41:14;102256.69;;;12.31;91.69
8575;BME280;4325;42.520;27.448;2023-02-28T09:43:46;102253.16;;;12.19;92.48
8575;BME280;4325;42.520;27.448;2023-02-28T09:46:28;102255.22;;;12.12;93.44
8575;BME280;4325;42.520;27.448;2023-02-28T09:48:58;102262.34;;;12.13;93.50
8575;BME280;4325;42.520;27.448;2023-02-28T09:51:33;102242.19;;;12.07;94.33
8575;BME280;4325;42.520;27.448;2023-02-28T09:54:03;102255.91;;;12.19;92.91
8575;BME280;4325;42.520;27.448;2023-02-28T09:56:36;102254.69;;;12.15;92.90
8575;BME280;4325;42.520;27.448;2023-02-28T09:59:11;102247.78;;;12.12;92.71
8575;BME280;4325;42.520;27.448;2023-02-28T10:01:49;102250.44;;;12.07;92.56
8575;BME280;4325;42.520;27.448;2023-02-28T10:04:37;102247.41;;;12.20;91.21
8575;BME280;4325;42.520;27.448;2023-02-28T10:07:18;102249.97;;;12.27;89.54
8575;BME280;4325;42.520;27.448;2023-02-28T10:09:52;102253.09;;;12.30;89.18
8575;BME280;4325;42.520;27.448;2023-02-28T10:12:20;102241.75;;;12.27;89.23
8575;BME280;4325;42.520;27.448;2023-02-28T10:14:50;102240.94;;;12.26;89.37
8575;BME280;4325;42.520;27.448;2023-02-28T10:17:21;102235.38;;;12.10;90.13
8575;BME280;4325;42.520;27.448;2023-02-28T10:19:58;102242.44;;;12.06;91.01
8575;BME280;4325;42.520;27.448;2023-02-28T10:22:30;102243.03;;;12.08;91.82
8575;BME280;4325;42.520;27.448;2023-02-28T10:25:00;102229.41;;;12.13;91.99
8575;BME280;4325;42.520;27.448;2023-02-28T10:27:30;102222.09;;;12.18;91.47
8575;BME280;4325;42.520;27.448;2023-02-28T10:29:59;102222.28;;;12.28;90.15
8575;BME280;4325;42.520;27.448;2023-02-28T10:32:30;102212.25;;;12.06;90.58
8575;BME280;4325;42.520;27.448;2023-02-28T10:35:00;102213.31;;;12.05;91.59
8575;BME280;4325;42.520;27.448;2023-02-28T10:37:30;102204.50;;;12.03;91.50
8575;BME280;4325;42.520;27.448;2023-02-28T10:39:57;102194.75;;;11.95;91.77
8575;BME280;4325;42.520;27.448;2023-02-28T10:42:26;102186.06;;;11.86;92.57
8575;BME280;4325;42.520;27.448;2023-02-28T10:45:11;102186.59;;;12.00;92.89
8575;BME280;4325;42.520;27.448;2023-02-28T10:47:51;102186.06;;;12.15;92.49
8575;BME280;4325;42.520;27.448;2023-02-28T10:50:32;102177.50;;;12.28;90.98
8575;BME280;4325;42.520;27.448;2023-02-28T10:53:28;102170.34;;;12.27;90.67
8575;BME280;4325;42.520;27.448;2023-02-28T10:55:58;102174.00;;;12.16;91.20
8575;BME280;4325;42.520;27.448;2023-02-28T10:58:28;102184.88;;;12.11;91.62
8575;BME280;4325;42.520;27.448;2023-02-28T11:00:55;102177.22;;;12.13;91.72
8575;BME280;4325;42.520;27.448;2023-02-28T11:03:34;102184.31;;;12.09;91.86
8575;BME280;4325;42.520;27.448;2023-02-28T11:06:07;102185.53;;;12.01;92.38
8575;BME280;4325;42.520;27.448;2023-02-28T11:08:44;102184.81;;;11.77;92.57
8575;BME280;4325;42.520;27.448;2023-02-28T11:11:12;102185.78;;;11.60;94.09
8575;BME280;4325;42.520;27.448;2023-02-28T11:13:39;102181.41;;;11.47;95.43
8575;BME280;4325;42.520;27.448;2023-02-28T11:16:08;102188.47;;;11.43;95.95
8575;BME280;4325;42.520;27.448;2023-02-28T11:18:39;102183.69;;;11.39;96.58
8575;BME280;4325;42.520;27.448;2023-02-28T11:21:09;102179.03;;;11.39;96.91
8575;BME280;4325;42.520;27.448;2023-02-28T11:23:42;102171.31;;;11.36;96.51
8575;BME280;4325;42.520;27.448;2023-02-28T11:26:09;102165.72;;;11.31;96.78
8575;BME280;4325;42.520;27.448;2023-02-28T11:28:38;102161.06;;;11.32;96.90
8575;BME280;4325;42.520;27.448;2023-02-28T11:31:16;102163.34;;;11.23;96.73
8575;BME280;4325;42.520;27.448;2023-02-28T11:33:46;102152.38;;;11.23;97.14
8575;BME280;4325;42.520;27.448;2023-02-28T11:36:20;102151.91;;;11.26;97.02
8575;BME280;4325;42.520;27.448;2023-02-28T11:38:50;102159.28;;;11.25;97.01
8575;BME280;4325;42.520;27.448;2023-02-28T11:41:38;102153.06;;;11.30;97.16
8575;BME280;4325;42.520;27.448;2023-02-28T11:44:23;102151.28;;;11.36;96.56
8575;BME280;4325;42.520;27.448;2023-02-28T11:46:56;102157.09;;;11.39;96.33
8575;BME280;4325;42.520;27.448;2023-02-28T11:49:32;102154.59;;;11.38;95.66
8575;BME280;4325;42.520;27.448;2023-02-28T11:52:09;102161.88;;;11.32;95.70
8575;BME280;4325;42.520;27.448;2023-02-28T11:54:54;102158.22;;;11.26;96.51
8575;BME280;4325;42.520;27.448;2023-02-28T11:57:35;102177.41;;;11.26;96.32
8575;BME280;4325;42.520;27.448;2023-02-28T12:00:18;102188.59;;;11.25;96.51
8575;BME280;4325;42.520;27.448;2023-02-28T12:02:55;102195.53;;;11.16;96.28
8575;BME280;4325;42.520;27.448;2023-02-28T12:05:30;102193.38;;;11.18;96.38
8575;BME280;4325;42.520;27.448;2023-02-28T12:08:10;102176.81;;;11.13;96.21
8575;BME280;4325;42.520;27.448;2023-02-28T12:10:57;102180.16;;;11.03;96.69
8575;BME280;4325;42.520;27.448;2023-02-28T12:13:36;102178.63;;;10.96;97.51
8575;BME280;4325;42.520;27.448;2023-02-28T12:16:25;102184.56;;;10.93;97.53
8575;BME280;4325;42.520;27.448;2023-02-28T12:19:09;102179.22;;;10.86;97.92
8575;BME280;4325;42.520;27.448;2023-02-28T12:21:58;102174.09;;;10.90;97.76
8575;BME280;4325;42.520;27.448;2023-02-28T12:24:49;102175.28;;;10.94;97.70
8575;BME280;4325;42.520;27.448;2023-02-28T12:27:22;102173.25;;;10.89;97.48
8575;BME280;4325;42.520;27.448;2023-02-28T12:29:55;102172.19;;;10.79;97.87
8575;BME280;4325;42.520;27.448;2023-02-28T12:32:26;102175.19;;;10.77;98.19
8575;BME280;4325;42.520;27.448;2023-02-28T12:34:58;102172.19;;;10.79;98.82
8575;BME280;4325;42.520;27.448;2023-02-28T12:37:31;102181.00;;;10.81;98.54
8575;BME280;4325;42.520;27.448;2023-02-28T12:40:05;102187.78;;;10.78;98.06
8575;BME280;4325;42.520;27.448;2023-02-28T12:42:38;102181.00;;;10.81;98.13
8575;BME280;4325;42.520;27.448;2023-02-28T12:45:10;102177.66;;;10.79;97.72
8575;BME280;4325;42.520;27.448;2023-02-28T12:47:42;102172.31;;;10.84;97.79
8575;BME280;4325;42.520;27.448;2023-02-28T12:50:11;102167.53;;;10.91;98.50
8575;BME280;4325;42.520;27.448;2023-02-28T12:52:44;102165.28;;;10.88;98.37
8575;BME280;4325;42.520;27.448;2023-02-28T12:55:19;102162.66;;;10.93;98.97
8575;BME280;4325;42.520;27.448;2023-02-28T12:57:54;102170.19;;;10.97;97.75
8575;BME280;4325;42.520;27.448;2023-02-28T13:00:29;102157.53;;;10.96;97.06
8575;BME280;4325;42.520;27.448;2023-02-28T13:03:21;102158.84;;;10.94;97.39
8575;BME280;4325;42.520;27.448;2023-02-28T13:06:11;102162.56;;;10.88;97.40
8575;BME280;4325;42.520;27.448;2023-02-28T13:09:05;102165.06;;;10.78;97.69
8575;BME280;4325;42.520;27.448;2023-02-28T13:11:42;102158.50;;;10.55;98.60
8575;BME280;4325;42.520;27.448;2023-02-28T13:14:23;102158.84;;;10.47;100.00
8575;BME280;4325;42.520;27.448;2023-02-28T13:17:01;102165.50;;;10.51;100.00
8575;BME280;4325;42.520;27.448;2023-02-28T13:19:30;102169.31;;;10.50;100.00
8575;BME280;4325;42.520;27.448;2023-02-28T13:21:58;102167.50;;;10.44;100.00